Portada
METAR-TAF:

METAR-TAF

Aeroports :

Resistencia, Argentina

latitud: 27-27S, longitud: 059-03W, altitud: 53 m

Observació

L'informe es va fer fa 58 minuts, a les 22:00 UTC
Vent 6 kt del Sud-Est
Temperatura 19°C
Humitat 52%
Pressió 1009 hPa
Visibilitat 10 km o més
sense núvols per sota de 1500 mi sense presència de cumulonimbus.

METAR: SARE 172200Z 14006KT CAVOK 19/09 Q1009

Hora: 19:58 (22:58 UTC)

Pronòstic

L'informe es va fer fa 5 hores i 58 minuts, a les 17:00 UTC
Pronòstic vàlid del 17 a les 18 UTC al 18 a les 18 UTC
Vent 10 kt del Sud/Sud-Est
Visibilitat 10 km o més
sense núvols per sota de 1500 mi sense presència de cumulonimbus.

TAF: SARE 171700Z 1718/1818 16010KT CAVOK TX26/1818Z TN14/1810Z

Observacions i pronòstics meteorològics de més de 4000 aeroports (METAR i TAF).

Les estacions disponibles són els punts grocs i vermells al mapa.

Posi el ratolí al punt desitjat per veure el nom de l'estació.

Feu clic per veure les observacions i els pronòstics meteorològics.

Per canviar el mapa: feu clic els botons verds amb una creu de color negre per apropar; al botó verd amb un guió per allunyar la imatge; o en les fletxes verdes per a mapes adjacents.


METAR-TAF: